createdAt,value
2023-05-24T00:01:44.343Z,6.60
2023-05-24T00:04:18.379Z,6.30
2023-05-24T00:06:49.788Z,7.27
2023-05-24T00:09:22.030Z,6.00
2023-05-24T00:11:53.260Z,6.60
2023-05-24T00:14:23.964Z,6.80
2023-05-24T00:16:54.989Z,6.47
2023-05-24T00:19:26.666Z,6.67
2023-05-24T00:21:58.913Z,7.17
2023-05-24T00:24:30.687Z,6.90
2023-05-24T00:27:01.918Z,8.03
2023-05-24T00:29:32.375Z,6.60
2023-05-24T00:32:02.964Z,6.27
2023-05-24T00:34:32.766Z,5.90
2023-05-24T00:37:03.303Z,6.20
2023-05-24T00:42:17.914Z,7.33
2023-05-24T00:44:49.759Z,5.50
2023-05-24T00:47:19.426Z,5.47
2023-05-24T00:49:47.654Z,5.47
2023-05-24T00:52:20.247Z,5.57
2023-05-24T00:54:52.237Z,5.37
2023-05-24T00:57:21.816Z,5.23
2023-05-24T00:59:50.189Z,4.87
2023-05-24T01:02:23.548Z,4.87
2023-05-24T01:04:52.526Z,4.93
2023-05-24T01:08:04.016Z,6.00
2023-05-24T01:11:03.693Z,5.30
2023-05-24T01:13:57.798Z,5.63
2023-05-24T01:16:54.398Z,5.00
2023-05-24T01:19:57.714Z,5.30
2023-05-24T01:23:04.622Z,5.13
2023-05-24T01:26:00.804Z,5.53
2023-05-24T01:28:35.705Z,5.67
2023-05-24T01:31:06.694Z,5.50
2023-05-24T01:33:38.449Z,5.23
2023-05-24T01:36:06.823Z,5.37
2023-05-24T01:38:39.266Z,5.97
2023-05-24T01:41:25.904Z,5.10
2023-05-24T01:44:34.065Z,6.00
2023-05-24T01:47:43.265Z,5.33
2023-05-24T01:50:26.516Z,5.20
2023-05-24T01:52:55.269Z,5.20
2023-05-24T01:55:24.730Z,5.47
2023-05-24T01:57:55.530Z,5.77
2023-05-24T02:00:24.323Z,5.63
2023-05-24T02:03:01.474Z,5.20
2023-05-24T02:05:38.395Z,5.30
2023-05-24T02:08:11.803Z,5.90
2023-05-24T02:10:45.887Z,5.67
2023-05-24T02:13:15.143Z,5.60
2023-05-24T02:15:45.420Z,5.70
2023-05-24T02:18:14.831Z,5.50
2023-05-24T02:21:13.353Z,5.67
2023-05-24T02:23:43.118Z,5.30
2023-05-24T02:26:15.704Z,5.60
2023-05-24T02:28:46.316Z,5.77
2023-05-24T02:31:15.410Z,5.60
2023-05-24T02:33:50.717Z,5.67
2023-05-24T02:36:19.886Z,5.30
2023-05-24T02:38:49.646Z,5.70
2023-05-24T02:41:25.954Z,5.80
2023-05-24T02:43:57.282Z,6.80
2023-05-24T02:46:25.560Z,5.77
2023-05-24T02:48:57.317Z,6.00
2023-05-24T02:51:28.879Z,5.63
2023-05-24T02:53:59.297Z,5.73
2023-05-24T02:56:28.982Z,5.87
2023-05-24T02:59:00.774Z,5.83
2023-05-24T03:01:31.415Z,7.60
2023-05-24T03:04:03.007Z,5.33
2023-05-24T03:06:34.895Z,5.87
2023-05-24T03:09:04.605Z,5.60
2023-05-24T03:11:40.220Z,5.70
2023-05-24T03:14:14.550Z,5.63
2023-05-24T03:16:46.691Z,5.80
2023-05-24T03:19:18.214Z,5.53
2023-05-24T03:21:48.584Z,5.87
2023-05-24T03:24:19.906Z,6.73
2023-05-24T03:26:49.197Z,5.70
2023-05-24T03:29:20.355Z,5.50
2023-05-24T03:31:52.875Z,5.60
2023-05-24T03:34:24.612Z,5.33
2023-05-24T03:36:55.712Z,6.80
2023-05-24T03:39:23.395Z,5.77
2023-05-24T03:42:12.609Z,6.43
2023-05-24T03:44:42.288Z,5.87
2023-05-24T03:47:12.786Z,5.13
2023-05-24T03:49:44.475Z,5.63
2023-05-24T03:52:16.064Z,5.60
2023-05-24T03:54:46.544Z,6.20
2023-05-24T03:57:17.175Z,6.17
2023-05-24T03:59:47.319Z,7.43
2023-05-24T04:02:22.937Z,6.00
2023-05-24T04:07:39.606Z,5.60
2023-05-24T04:10:10.629Z,5.97
2023-05-24T04:12:52.793Z,5.67
2023-05-24T04:15:20.119Z,5.27
2023-05-24T04:17:51.290Z,6.80
2023-05-24T04:20:21.366Z,5.90
2023-05-24T04:22:54.163Z,5.30
2023-05-24T04:25:31.083Z,5.20
2023-05-24T04:28:10.586Z,6.27
2023-05-24T04:30:41.316Z,6.23
2023-05-24T04:33:13.761Z,5.70
2023-05-24T04:35:43.951Z,6.20
2023-05-24T04:38:17.106Z,6.17
2023-05-24T04:40:44.556Z,5.93
2023-05-24T04:43:16.299Z,5.70
2023-05-24T04:45:50.594Z,5.83
2023-05-24T04:48:19.792Z,5.80
2023-05-24T04:50:47.958Z,6.07
2023-05-24T04:53:18.909Z,5.10
2023-05-24T04:55:48.054Z,5.30
2023-05-24T04:58:16.594Z,5.30
2023-05-24T05:00:48.477Z,4.90
2023-05-24T05:03:19.802Z,5.10
2023-05-24T05:05:49.320Z,5.33
2023-05-24T05:08:19.630Z,4.97
2023-05-24T05:10:50.898Z,4.73
2023-05-24T05:13:24.986Z,5.00
2023-05-24T05:15:55.976Z,5.20
2023-05-24T05:18:23.100Z,5.00
2023-05-24T05:20:52.543Z,4.60
2023-05-24T05:23:22.940Z,4.40
2023-05-24T05:25:52.380Z,4.33
2023-05-24T05:28:22.950Z,4.77
2023-05-24T05:30:52.864Z,4.50
2023-05-24T05:33:24.047Z,3.90
2023-05-24T05:35:55.146Z,3.97
2023-05-24T05:38:25.561Z,3.90
2023-05-24T05:40:56.721Z,3.87
2023-05-24T05:43:31.742Z,3.87
2023-05-24T05:46:03.849Z,3.90
2023-05-24T05:48:33.587Z,3.90
2023-05-24T05:54:23.180Z,3.40
2023-05-24T05:57:03.076Z,3.63
2023-05-24T05:59:36.506Z,4.03
2023-05-24T06:02:06.820Z,3.60
2023-05-24T06:04:38.108Z,3.33
2023-05-24T06:07:08.207Z,3.23
2023-05-24T06:09:38.987Z,3.13
2023-05-24T06:12:08.550Z,3.10
2023-05-24T06:14:39.517Z,3.20
2023-05-24T06:17:08.691Z,3.20
2023-05-24T06:19:38.836Z,3.30
2023-05-24T06:22:09.843Z,3.30
2023-05-24T06:24:40.205Z,3.40
2023-05-24T06:27:11.571Z,3.30
2023-05-24T06:29:43.128Z,3.90
2023-05-24T06:32:13.328Z,3.00
2023-05-24T06:34:43.053Z,3.07
2023-05-24T06:37:18.219Z,3.00
2023-05-24T06:39:48.554Z,2.73
2023-05-24T06:42:22.775Z,2.67
2023-05-24T06:47:34.925Z,2.93
2023-05-24T06:50:07.400Z,3.00
2023-05-24T06:52:39.831Z,2.80
2023-05-24T06:55:13.650Z,2.90
2023-05-24T06:57:43.921Z,2.97
2023-05-24T07:00:15.476Z,2.83
2023-05-24T07:02:49.016Z,2.60
2023-05-24T07:05:17.130Z,3.03
2023-05-24T07:07:45.742Z,3.10
2023-05-24T07:10:17.687Z,3.20
2023-05-24T07:12:49.128Z,2.87
2023-05-24T07:15:20.328Z,4.10
2023-05-24T07:17:50.978Z,3.30
2023-05-24T07:20:23.427Z,3.60
2023-05-24T07:22:57.516Z,3.20
2023-05-24T07:25:27.708Z,3.20
2023-05-24T07:28:00.519Z,3.00
2023-05-24T07:30:37.693Z,3.03
2023-05-24T07:33:07.442Z,3.27
2023-05-24T07:35:34.337Z,3.13
2023-05-24T07:38:04.561Z,3.60
2023-05-24T07:40:35.507Z,4.13
2023-05-24T07:43:04.486Z,2.80
2023-05-24T07:45:34.497Z,3.70
2023-05-24T07:48:06.263Z,2.90
2023-05-24T07:50:36.400Z,2.70
2023-05-24T07:53:07.315Z,3.03
2023-05-24T07:55:37.866Z,2.40
2023-05-24T07:58:10.187Z,3.03
2023-05-24T08:00:40.331Z,2.10
2023-05-24T08:03:11.754Z,2.40
2023-05-24T08:05:43.663Z,2.20
2023-05-24T08:08:19.246Z,2.10
2023-05-24T08:10:49.438Z,2.27
2023-05-24T08:13:26.854Z,2.53
2023-05-24T08:16:07.457Z,1.80
2023-05-24T08:18:39.182Z,2.13
2023-05-24T08:21:11.257Z,2.03
2023-05-24T08:23:46.700Z,5.47
2023-05-24T08:26:22.142Z,2.57
2023-05-24T08:28:53.519Z,2.00
2023-05-24T08:31:22.107Z,2.30
2023-05-24T08:33:56.072Z,3.13
2023-05-24T08:36:24.144Z,2.07
2023-05-24T08:38:54.463Z,2.23
2023-05-24T08:41:25.073Z,2.17
2023-05-24T08:43:58.385Z,2.23
2023-05-24T08:46:26.501Z,2.33
2023-05-24T08:48:58.499Z,3.23
2023-05-24T08:51:27.973Z,2.43
2023-05-24T08:53:57.866Z,2.00
2023-05-24T08:56:29.659Z,2.00
2023-05-24T08:59:01.971Z,2.30
2023-05-24T09:01:36.695Z,2.17
2023-05-24T09:04:08.830Z,2.13
2023-05-24T09:06:38.289Z,2.40
2023-05-24T09:09:11.375Z,2.30
2023-05-24T09:11:46.126Z,2.53
2023-05-24T09:14:16.999Z,2.00
2023-05-24T09:16:46.685Z,3.03
2023-05-24T09:19:18.006Z,2.00
2023-05-24T09:21:48.684Z,2.20
2023-05-24T09:24:16.850Z,2.10
2023-05-24T09:26:47.177Z,2.20
2023-05-24T09:29:15.293Z,2.10
2023-05-24T09:31:46.158Z,3.03
2023-05-24T09:34:19.626Z,2.30
2023-05-24T09:36:51.443Z,2.47
2023-05-24T09:39:23.518Z,3.40
2023-05-24T09:41:58.866Z,2.60
2023-05-24T09:44:33.482Z,1.93
2023-05-24T09:47:08.090Z,2.00
2023-05-24T09:49:37.738Z,2.60
2023-05-24T09:52:06.362Z,2.30
2023-05-24T09:54:36.407Z,2.00
2023-05-24T09:57:07.095Z,1.90
2023-05-24T09:59:41.982Z,2.37
2023-05-24T10:05:04.355Z,2.20
2023-05-24T10:07:42.764Z,2.70
2023-05-24T10:10:10.657Z,2.33
2023-05-24T10:12:44.252Z,3.00
2023-05-24T10:15:14.822Z,2.93
2023-05-24T10:17:46.451Z,2.10
2023-05-24T10:20:24.349Z,3.13
2023-05-24T10:22:55.232Z,2.63
2023-05-24T10:25:50.116Z,2.23
2023-05-24T10:28:22.192Z,2.47
2023-05-24T10:31:16.130Z,3.27
2023-05-24T10:33:48.620Z,2.20
2023-05-24T10:36:21.699Z,2.17
2023-05-24T10:38:53.176Z,2.30
2023-05-24T10:41:39.176Z,2.43
2023-05-24T10:44:14.727Z,2.20
2023-05-24T10:47:20.103Z,2.60
2023-05-24T10:50:19.550Z,2.90
2023-05-24T10:52:51.570Z,2.57
2023-05-24T10:55:25.255Z,2.37
2023-05-24T10:57:59.557Z,2.40
2023-05-24T11:00:40.070Z,2.67
2023-05-24T11:03:12.328Z,3.80
2023-05-24T11:06:02.834Z,3.40
2023-05-24T11:08:49.832Z,2.77
2023-05-24T11:11:28.664Z,3.13
2023-05-24T11:14:02.574Z,2.50
2023-05-24T11:16:42.602Z,3.27
2023-05-24T11:19:44.706Z,2.30
2023-05-24T11:22:31.328Z,3.30
2023-05-24T11:25:06.084Z,2.57
2023-05-24T11:27:36.257Z,3.50
2023-05-24T11:30:08.194Z,2.70
2023-05-24T11:32:44.537Z,2.40
2023-05-24T11:35:17.551Z,2.17
2023-05-24T11:37:48.416Z,2.83
2023-05-24T11:40:18.126Z,2.50
2023-05-24T11:42:49.403Z,2.43
2023-05-24T11:45:19.041Z,2.30
2023-05-24T11:47:48.423Z,2.20
2023-05-24T11:50:46.011Z,2.40
2023-05-24T11:53:18.732Z,2.53
2023-05-24T11:55:48.881Z,2.77
2023-05-24T11:58:37.086Z,4.50
2023-05-24T12:01:07.966Z,3.03
2023-05-24T12:03:36.560Z,2.60
2023-05-24T12:06:06.220Z,2.67
2023-05-24T12:08:37.828Z,4.63
2023-05-24T12:11:11.930Z,2.43
2023-05-24T12:13:43.019Z,3.00
2023-05-24T12:16:22.773Z,4.10
2023-05-24T12:19:04.178Z,2.33
2023-05-24T12:21:43.252Z,3.23
2023-05-24T12:24:26.033Z,3.90
2023-05-24T12:27:09.541Z,2.90
2023-05-24T12:29:40.665Z,3.20
2023-05-24T12:32:17.587Z,3.00
2023-05-24T12:34:51.682Z,3.20
2023-05-24T12:37:24.748Z,2.67
2023-05-24T12:39:54.528Z,2.33
2023-05-24T12:42:26.977Z,4.53
2023-05-24T12:45:04.215Z,3.27
2023-05-24T12:47:42.656Z,3.13
2023-05-24T12:52:53.995Z,3.33
2023-05-24T12:55:44.254Z,3.27
2023-05-24T12:58:19.122Z,3.57
2023-05-24T13:00:50.496Z,2.80
2023-05-24T13:03:20.644Z,2.87
2023-05-24T13:06:10.789Z,3.27
2023-05-24T13:08:41.274Z,2.87
2023-05-24T13:11:11.657Z,2.90
2023-05-24T13:13:42.684Z,3.40
2023-05-24T13:16:15.653Z,5.27
2023-05-24T13:18:48.128Z,3.47
2023-05-24T13:21:17.594Z,3.43
2023-05-24T13:23:49.938Z,4.07
2023-05-24T13:26:20.817Z,3.87
2023-05-24T13:29:15.664Z,3.13
2023-05-24T13:31:46.415Z,3.93
2023-05-24T13:34:15.784Z,3.43
2023-05-24T13:36:45.238Z,3.43
2023-05-24T13:39:16.518Z,3.03
2023-05-24T13:41:45.468Z,4.73
2023-05-24T13:44:19.646Z,3.47
2023-05-24T13:46:49.870Z,5.63
2023-05-24T13:49:20.427Z,3.10
2023-05-24T13:51:51.675Z,4.97
2023-05-24T13:54:21.690Z,3.87
2023-05-24T13:56:52.225Z,4.33
2023-05-24T13:59:22.699Z,4.60
2023-05-24T14:01:52.252Z,4.40
2023-05-24T14:04:23.595Z,3.20
2023-05-24T14:06:55.358Z,5.50
2023-05-24T14:09:26.460Z,2.90
2023-05-24T14:11:59.967Z,5.47
2023-05-24T14:17:03.373Z,5.03
2023-05-24T14:19:34.244Z,4.13
2023-05-24T14:22:05.246Z,6.67
2023-05-24T14:24:36.699Z,6.47
2023-05-24T14:27:09.537Z,5.27
2023-05-24T14:29:41.152Z,3.90
2023-05-24T14:32:16.392Z,4.70
2023-05-24T14:34:48.026Z,6.07
2023-05-24T14:37:20.947Z,5.17
2023-05-24T14:39:52.138Z,4.90
2023-05-24T14:42:24.652Z,4.70
2023-05-24T14:44:53.500Z,3.77
2023-05-24T14:47:24.156Z,3.77
2023-05-24T14:49:56.474Z,3.77
2023-05-24T14:52:27.469Z,3.70
2023-05-24T14:54:56.654Z,6.57
2023-05-24T14:57:23.627Z,4.47
2023-05-24T14:59:57.551Z,4.83
2023-05-24T15:02:28.252Z,3.80
2023-05-24T15:04:59.837Z,4.53
2023-05-24T15:07:29.753Z,6.03
2023-05-24T15:10:00.806Z,4.43
2023-05-24T15:12:32.068Z,4.37
2023-05-24T15:15:02.767Z,5.27
2023-05-24T15:17:31.686Z,4.27
2023-05-24T15:20:02.960Z,4.00
2023-05-24T15:22:35.210Z,3.63
2023-05-24T15:25:09.201Z,4.50
2023-05-24T15:27:40.884Z,5.33
2023-05-24T15:30:10.692Z,4.43
2023-05-24T15:32:41.375Z,5.57
2023-05-24T15:35:12.453Z,6.00
2023-05-24T15:37:44.919Z,4.37
2023-05-24T15:40:18.263Z,4.77
2023-05-24T15:42:48.688Z,7.50
2023-05-24T15:45:21.107Z,7.27
2023-05-24T15:47:53.606Z,11.53
2023-05-24T15:50:42.629Z,4.80
2023-05-24T15:53:14.943Z,8.23
2023-05-24T15:55:46.830Z,5.37
2023-05-24T15:58:19.501Z,4.70
2023-05-24T16:00:50.774Z,4.77
2023-05-24T16:03:20.290Z,4.83
2023-05-24T16:05:50.715Z,5.53
2023-05-24T16:08:21.463Z,3.53
2023-05-24T16:10:51.628Z,5.10
2023-05-24T16:13:24.408Z,4.77
2023-05-24T16:15:51.862Z,5.40
2023-05-24T16:18:25.732Z,5.37
2023-05-24T16:20:53.288Z,4.67
2023-05-24T16:23:27.156Z,5.75
2023-05-24T16:25:58.836Z,5.47
2023-05-24T16:28:26.583Z,5.00
2023-05-24T16:31:14.898Z,6.07
2023-05-24T16:33:43.957Z,4.63
2023-05-24T16:36:14.706Z,5.83
2023-05-24T16:38:45.835Z,4.93
2023-05-24T16:41:15.667Z,3.40
2023-05-24T16:43:45.451Z,4.47
2023-05-24T16:46:16.724Z,5.17
2023-05-24T16:48:46.737Z,3.97
2023-05-24T16:51:19.336Z,4.60
2023-05-24T16:53:51.776Z,5.43
2023-05-24T16:56:21.573Z,5.97
2023-05-24T16:58:51.534Z,5.10
2023-05-24T17:01:25.238Z,3.40
2023-05-24T17:03:56.500Z,4.57
2023-05-24T17:06:24.398Z,3.87
2023-05-24T17:08:53.905Z,5.93
2023-05-24T17:11:23.396Z,5.07
2023-05-24T17:13:54.724Z,4.83
2023-05-24T17:16:23.064Z,5.23
2023-05-24T17:18:53.706Z,5.73
2023-05-24T17:21:24.033Z,4.27
2023-05-24T17:23:58.860Z,4.50
2023-05-24T17:26:28.377Z,4.87
2023-05-24T17:28:59.037Z,5.70
2023-05-24T17:31:26.756Z,5.57
2023-05-24T17:33:57.732Z,5.33
2023-05-24T17:36:26.775Z,4.87
2023-05-24T17:39:00.006Z,4.43
2023-05-24T17:41:38.254Z,5.80
2023-05-24T17:44:07.180Z,5.53
2023-05-24T17:46:40.534Z,4.73
2023-05-24T17:49:16.944Z,6.30
2023-05-24T17:51:50.738Z,3.87
2023-05-24T17:54:23.541Z,5.83
2023-05-24T17:56:54.830Z,3.33
2023-05-24T17:59:28.060Z,4.70
2023-05-24T18:02:00.632Z,4.87
2023-05-24T18:04:34.211Z,4.87
2023-05-24T18:07:07.023Z,3.63
2023-05-24T18:09:40.700Z,3.73
2023-05-24T18:12:14.055Z,5.10
2023-05-24T18:14:51.123Z,4.33
2023-05-24T18:17:21.469Z,4.57
2023-05-24T18:19:50.352Z,5.27
2023-05-24T18:22:25.170Z,6.80
2023-05-24T18:24:59.388Z,5.70
2023-05-24T18:27:30.964Z,5.93
2023-05-24T18:30:03.511Z,4.90
2023-05-24T18:32:45.954Z,5.53
2023-05-24T18:35:25.971Z,4.73
2023-05-24T18:37:56.497Z,4.83
2023-05-24T18:40:27.372Z,5.03
2023-05-24T18:42:58.945Z,4.63
2023-05-24T18:45:32.383Z,5.60
2023-05-24T18:48:03.121Z,5.73
2023-05-24T18:50:32.804Z,4.53
2023-05-24T18:53:08.021Z,4.90
2023-05-24T18:55:37.698Z,5.50
2023-05-24T18:58:10.982Z,4.73
2023-05-24T19:00:44.987Z,5.03
2023-05-24T19:03:16.306Z,6.07
2023-05-24T19:05:44.824Z,4.23
2023-05-24T19:08:15.880Z,4.73
2023-05-24T19:10:51.283Z,4.73
2023-05-24T19:13:23.872Z,4.53
2023-05-24T19:15:55.157Z,4.40
2023-05-24T19:18:26.871Z,5.30
2023-05-24T19:21:01.857Z,7.73
2023-05-24T19:23:34.627Z,5.23
2023-05-24T19:26:08.338Z,5.87
2023-05-24T19:28:43.805Z,8.00
2023-05-24T19:31:19.983Z,5.27
2023-05-24T19:36:33.355Z,5.07
2023-05-24T19:39:05.042Z,4.90
2023-05-24T19:41:34.108Z,6.97
2023-05-24T19:44:04.501Z,5.50
2023-05-24T19:46:35.259Z,5.33
2023-05-24T19:49:06.128Z,5.93
2023-05-24T19:51:40.366Z,5.00
2023-05-24T19:54:12.000Z,5.43
2023-05-24T19:56:42.693Z,5.43
2023-05-24T19:59:14.665Z,5.43
2023-05-24T20:01:45.542Z,6.27
2023-05-24T20:04:16.201Z,5.23
2023-05-24T20:06:44.809Z,5.10
2023-05-24T20:09:15.571Z,6.57
2023-05-24T20:11:47.010Z,5.53
2023-05-24T20:14:21.096Z,5.23
2023-05-24T20:16:49.811Z,5.10
2023-05-24T20:19:23.767Z,6.40
2023-05-24T20:21:55.153Z,4.80
2023-05-24T20:24:24.923Z,6.17
2023-05-24T20:26:53.632Z,5.40
2023-05-24T20:29:28.533Z,6.93
2023-05-24T20:31:58.363Z,5.13
2023-05-24T20:34:31.410Z,4.70
2023-05-24T20:36:58.940Z,5.03
2023-05-24T20:39:30.897Z,5.20
2023-05-24T20:42:01.607Z,4.60
2023-05-24T20:44:32.219Z,5.80
2023-05-24T20:46:59.465Z,4.90
2023-05-24T20:49:30.799Z,5.03
2023-05-24T20:52:00.035Z,5.70
2023-05-24T20:54:29.163Z,5.37
2023-05-24T20:56:59.046Z,5.00
2023-05-24T20:59:29.901Z,5.33
2023-05-24T21:01:59.788Z,4.70
2023-05-24T21:04:29.949Z,7.00
2023-05-24T21:06:57.174Z,5.50
2023-05-24T21:09:27.729Z,5.60
2023-05-24T21:11:57.479Z,6.20
2023-05-24T21:14:26.428Z,5.80
2023-05-24T21:17:03.292Z,6.77
2023-05-24T21:19:33.994Z,5.70
2023-05-24T21:22:03.167Z,5.43
2023-05-24T21:24:33.370Z,5.63
2023-05-24T21:27:05.383Z,5.60
2023-05-24T21:29:35.498Z,5.97
2023-05-24T21:32:04.256Z,5.90
2023-05-24T21:34:33.436Z,7.50
2023-05-24T21:37:04.066Z,6.53
2023-05-24T21:39:36.491Z,6.20
2023-05-24T21:42:07.754Z,6.23
2023-05-24T21:44:37.592Z,6.13
2023-05-24T21:47:14.281Z,7.00
2023-05-24T21:49:43.896Z,6.33
2023-05-24T21:52:12.968Z,5.90
2023-05-24T21:54:42.572Z,6.13
2023-05-24T21:57:14.896Z,5.83
2023-05-24T21:59:45.558Z,6.20
2023-05-24T22:02:14.917Z,6.47
2023-05-24T22:04:44.283Z,6.30
2023-05-24T22:07:16.407Z,6.50
2023-05-24T22:09:46.133Z,6.03
2023-05-24T22:12:17.135Z,6.97
2023-05-24T22:14:47.233Z,6.93
2023-05-24T22:17:18.245Z,6.70
2023-05-24T22:19:48.027Z,7.13
2023-05-24T22:22:21.267Z,7.37
2023-05-24T22:24:51.996Z,6.80
2023-05-24T22:27:22.080Z,7.07
2023-05-24T22:29:53.142Z,7.00
2023-05-24T22:32:23.794Z,6.60
2023-05-24T22:34:54.591Z,7.40
2023-05-24T22:37:25.074Z,7.07
2023-05-24T22:39:54.982Z,6.93
2023-05-24T22:42:24.525Z,6.73
2023-05-24T22:45:04.049Z,7.50
2023-05-24T22:47:33.781Z,6.70
2023-05-24T22:50:02.831Z,7.17
2023-05-24T22:52:36.668Z,8.37
2023-05-24T22:55:07.479Z,6.87
2023-05-24T22:57:41.772Z,6.90
2023-05-24T23:00:15.772Z,7.10
2023-05-24T23:02:46.539Z,7.17
2023-05-24T23:05:18.046Z,8.80
2023-05-24T23:07:48.700Z,6.73
2023-05-24T23:10:19.345Z,6.90
2023-05-24T23:12:54.439Z,7.10
2023-05-24T23:15:23.652Z,7.40
2023-05-24T23:17:55.528Z,7.30
2023-05-24T23:20:29.046Z,7.77
2023-05-24T23:23:01.645Z,7.43
2023-05-24T23:25:29.280Z,7.17
2023-05-24T23:28:00.500Z,7.33
2023-05-24T23:30:31.861Z,7.23
2023-05-24T23:33:02.961Z,7.00
2023-05-24T23:35:30.408Z,7.30
2023-05-24T23:37:59.479Z,7.40
2023-05-24T23:40:29.834Z,7.23
2023-05-24T23:42:57.914Z,7.30
2023-05-24T23:45:29.551Z,7.77
2023-05-24T23:48:03.412Z,7.57
2023-05-24T23:50:46.345Z,7.77
2023-05-24T23:53:25.555Z,7.73
2023-05-24T23:55:57.256Z,7.10
2023-05-24T23:58:28.955Z,8.50
